EDSB/FKB METAR and TAF weather

Enter ICAO airport designator
Station Type Date Time Source
EDSB METAR 2020/09/19 01:50 UTC NOAA

EDSB 190150Z AUTO 35004KT 9999 NCD 13/10 Q1019


Station Type Date Time Source
EDSB Decoded METAR 2020/09/19 01:50 UTC NOAA

Karlsruhe, Baden Wurttemberg, Germany (EDSB) 48-46-43N 008-04-47E
Sep 18, 2020 - 09:50 PM EDT / 2020.09.19 0150 UTC
Wind: from the N (350 degrees) at 5 MPH (4 KT):0
Visibility: greater than 7 mile(s):0
Temperature: 55 F (13 C)
Dew Point: 50 F (10 C)
Relative Humidity: 81%
Pressure (altimeter): 30.09 in. Hg (1019 hPa)
ob: EDSB 190150Z AUTO 35004KT 9999 NCD 13/10 Q1019
cycle: 2

Station Type Date Time Source
EDSB TAF 2020/09/18 18:27 UTC NOAA

TAF EDSB 181700Z 1818/1918 03006KT CAVOK

Example: see airport list